createdAt,value
2022-10-18T00:01:19.560Z,99.90
2022-10-18T00:05:21.460Z,99.90
2022-10-18T00:09:23.460Z,99.90
2022-10-18T00:13:25.559Z,99.90
2022-10-18T00:17:27.714Z,99.90
2022-10-18T00:21:29.720Z,99.90
2022-10-18T00:25:31.543Z,99.90
2022-10-18T00:29:33.420Z,99.90
2022-10-18T00:33:35.322Z,99.90
2022-10-18T00:37:37.304Z,99.90
2022-10-18T00:41:39.165Z,99.90
2022-10-18T00:45:41.210Z,99.90
2022-10-18T00:49:50.282Z,99.90
2022-10-18T00:53:52.337Z,99.90
2022-10-18T01:02:02.402Z,99.90
2022-10-18T01:06:04.508Z,99.90
2022-10-18T01:10:09.202Z,99.90
2022-10-18T01:14:22.780Z,99.90
2022-10-18T01:19:02.400Z,99.90
2022-10-18T01:23:13.727Z,99.90
2022-10-18T01:27:34.442Z,99.90
2022-10-18T01:32:01.450Z,99.90
2022-10-18T01:36:10.190Z,99.90
2022-10-18T01:40:14.264Z,99.90
2022-10-18T01:44:20.917Z,99.90
2022-10-18T01:48:23.686Z,99.90
2022-10-18T01:52:25.538Z,99.90
2022-10-18T01:56:46.285Z,99.90
2022-10-18T02:00:56.539Z,99.90
2022-10-18T02:05:10.207Z,99.90
2022-10-18T02:09:30.247Z,99.90
2022-10-18T02:13:50.774Z,99.90
2022-10-18T02:17:54.520Z,99.90
2022-10-18T02:21:58.237Z,99.90
2022-10-18T02:26:00.442Z,99.90
2022-10-18T02:30:02.684Z,99.90
2022-10-18T02:34:24.330Z,99.90
2022-10-18T02:38:27.962Z,99.90
2022-10-18T02:42:59.400Z,99.90
2022-10-18T02:47:01.736Z,99.90
2022-10-18T02:51:03.600Z,99.90
2022-10-18T02:55:06.945Z,99.90
2022-10-18T02:59:08.832Z,99.90
2022-10-18T03:03:10.619Z,99.90
2022-10-18T03:07:12.474Z,99.90
2022-10-18T03:11:14.386Z,99.90
2022-10-18T03:15:16.352Z,99.90
2022-10-18T03:19:18.260Z,99.90
2022-10-18T03:23:20.070Z,99.90
2022-10-18T03:27:21.935Z,99.90
2022-10-18T03:31:23.861Z,99.90
2022-10-18T03:35:25.792Z,99.90
2022-10-18T03:39:27.647Z,99.90
2022-10-18T03:43:29.607Z,99.90
2022-10-18T03:47:31.470Z,99.90
2022-10-18T03:51:33.341Z,99.90
2022-10-18T03:55:36.481Z,99.90
2022-10-18T03:59:38.382Z,99.90
2022-10-18T04:03:40.187Z,99.90
2022-10-18T04:07:42.041Z,99.90
2022-10-18T04:11:43.891Z,99.90
2022-10-18T04:15:45.746Z,99.90
2022-10-18T04:19:47.610Z,99.90
2022-10-18T04:23:50.702Z,99.90
2022-10-18T04:27:52.517Z,99.90
2022-10-18T04:31:54.357Z,99.90
2022-10-18T04:35:56.207Z,99.90
2022-10-18T04:39:58.079Z,99.90
2022-10-18T04:44:00.153Z,99.90
2022-10-18T04:48:02.089Z,99.90
2022-10-18T04:52:04.539Z,99.90
2022-10-18T04:56:06.760Z,99.90
2022-10-18T05:00:08.981Z,99.90
2022-10-18T05:04:10.893Z,99.90
2022-10-18T05:08:13.066Z,99.90
2022-10-18T05:12:15.018Z,99.90
2022-10-18T05:16:16.871Z,99.90
2022-10-18T05:20:18.714Z,99.90
2022-10-18T05:24:22.007Z,99.90
2022-10-18T05:28:42.192Z,99.90
2022-10-18T05:32:44.079Z,99.90
2022-10-18T05:36:45.908Z,99.90
2022-10-18T05:40:47.893Z,99.90
2022-10-18T05:44:49.754Z,99.90
2022-10-18T05:48:52.121Z,99.90
2022-10-18T05:53:02.754Z,99.90
2022-10-18T05:57:14.607Z,99.90
2022-10-18T06:01:16.419Z,99.90
2022-10-18T06:05:18.254Z,99.90
2022-10-18T06:09:20.083Z,99.90
2022-10-18T06:13:22.304Z,99.90
2022-10-18T06:17:25.180Z,99.90
2022-10-18T06:21:28.627Z,99.90
2022-10-18T06:25:30.458Z,99.90
2022-10-18T06:29:32.300Z,99.90
2022-10-18T06:33:36.178Z,99.90
2022-10-18T06:37:38.338Z,99.90
2022-10-18T06:41:40.228Z,99.90
2022-10-18T06:45:42.049Z,99.90
2022-10-18T06:49:43.931Z,93.20
2022-10-18T06:53:59.267Z,89.10
2022-10-18T06:58:07.574Z,83.40
2022-10-18T07:02:14.640Z,80.20
2022-10-18T07:06:18.612Z,78.50
2022-10-18T07:10:20.568Z,73.60
2022-10-18T07:14:24.723Z,71.30
2022-10-18T07:18:30.065Z,72.40
2022-10-18T07:22:31.920Z,73.50
2022-10-18T07:26:35.038Z,72.60
2022-10-18T07:30:36.895Z,69.00
2022-10-18T07:34:38.772Z,71.60
2022-10-18T07:38:41.314Z,71.00
2022-10-18T07:42:43.428Z,70.80
2022-10-18T07:46:45.294Z,70.60
2022-10-18T07:50:47.339Z,71.20
2022-10-18T07:58:54.037Z,68.70
2022-10-18T08:02:59.481Z,68.50
2022-10-18T08:07:01.371Z,65.60
2022-10-18T08:11:09.164Z,63.60
2022-10-18T08:15:11.431Z,62.20
2022-10-18T08:19:13.279Z,63.30
2022-10-18T08:23:15.110Z,61.30
2022-10-18T08:27:17.213Z,59.30
2022-10-18T08:31:19.952Z,59.00
2022-10-18T08:35:21.861Z,60.30
2022-10-18T08:39:23.741Z,59.70
2022-10-18T08:43:33.514Z,60.70
2022-10-18T08:47:39.424Z,57.60
2022-10-18T08:51:47.567Z,57.20
2022-10-18T08:55:53.493Z,55.90
2022-10-18T08:59:55.910Z,55.20
2022-10-18T09:04:03.433Z,55.00
2022-10-18T09:08:16.103Z,54.30
2022-10-18T09:13:05.523Z,53.70
2022-10-18T09:17:17.869Z,53.90
2022-10-18T09:21:52.948Z,55.50
2022-10-18T09:26:20.482Z,55.50
2022-10-18T09:30:40.993Z,53.90
2022-10-18T09:35:02.485Z,54.40
2022-10-18T09:39:35.461Z,54.10
2022-10-18T09:44:04.128Z,52.20
2022-10-18T09:48:24.501Z,51.70
2022-10-18T09:52:44.504Z,51.00
2022-10-18T09:56:54.234Z,50.30
2022-10-18T10:00:56.150Z,50.80
2022-10-18T10:04:58.155Z,51.30
2022-10-18T10:09:14.769Z,52.80
2022-10-18T10:13:23.175Z,51.90
2022-10-18T10:17:28.899Z,52.80
2022-10-18T10:21:30.961Z,52.90
2022-10-18T10:25:38.137Z,52.00
2022-10-18T10:29:45.951Z,52.20
2022-10-18T10:33:48.229Z,48.70
2022-10-18T10:37:54.350Z,47.20
2022-10-18T10:41:59.002Z,47.20
2022-10-18T10:46:05.176Z,47.10
2022-10-18T10:50:12.597Z,47.00
2022-10-18T10:54:22.136Z,47.50
2022-10-18T10:58:25.141Z,47.00
2022-10-18T11:02:26.934Z,48.60
2022-10-18T11:06:41.111Z,51.30
2022-10-18T11:10:55.355Z,51.20
2022-10-18T11:15:11.839Z,50.70
2022-10-18T11:19:37.261Z,52.00
2022-10-18T11:23:42.279Z,50.80
2022-10-18T11:28:11.147Z,49.70
2022-10-18T11:32:42.888Z,49.40
2022-10-18T11:37:37.535Z,49.50
2022-10-18T11:41:46.130Z,50.50
2022-10-18T11:46:06.472Z,50.70
2022-10-18T11:50:08.376Z,48.70
2022-10-18T11:54:41.630Z,49.70
2022-10-18T11:59:05.400Z,48.00
2022-10-18T12:03:26.680Z,48.80
2022-10-18T12:07:34.723Z,51.10
2022-10-18T12:12:09.626Z,52.50
2022-10-18T12:16:12.391Z,53.20
2022-10-18T12:20:32.075Z,52.50
2022-10-18T12:24:35.469Z,52.20
2022-10-18T12:28:49.367Z,51.70
2022-10-18T12:33:16.543Z,51.60
2022-10-18T12:37:44.790Z,51.00
2022-10-18T12:41:47.178Z,51.90
2022-10-18T12:45:55.317Z,51.90
2022-10-18T12:50:23.104Z,54.00
2022-10-18T12:55:03.086Z,51.90
2022-10-18T12:59:14.383Z,52.50
2022-10-18T13:03:19.119Z,52.40
2022-10-18T13:07:34.124Z,53.60
2022-10-18T13:11:36.926Z,52.80
2022-10-18T13:15:53.181Z,52.80
2022-10-18T13:20:25.441Z,51.00
2022-10-18T13:24:35.775Z,50.50
2022-10-18T13:28:53.781Z,51.80
2022-10-18T13:33:08.285Z,51.90
2022-10-18T13:37:10.069Z,53.90
2022-10-18T13:41:13.772Z,53.00
2022-10-18T13:45:34.049Z,53.40
2022-10-18T13:49:59.622Z,54.60
2022-10-18T13:54:23.321Z,54.80
2022-10-18T13:59:06.121Z,57.20
2022-10-18T14:03:56.185Z,60.40
2022-10-18T14:08:04.748Z,62.00
2022-10-18T14:12:35.607Z,63.50
2022-10-18T14:16:47.103Z,64.60
2022-10-18T14:21:12.296Z,64.00
2022-10-18T14:25:23.254Z,62.90
2022-10-18T14:29:25.133Z,59.60
2022-10-18T14:33:42.962Z,59.80
2022-10-18T14:37:47.915Z,61.10
2022-10-18T14:41:55.024Z,59.70
2022-10-18T14:46:16.777Z,60.80
2022-10-18T14:50:24.920Z,61.50
2022-10-18T14:54:33.224Z,62.50
2022-10-18T14:58:38.329Z,64.10
2022-10-18T15:02:40.239Z,66.90
2022-10-18T15:06:44.004Z,61.70
2022-10-18T15:10:46.282Z,63.10
2022-10-18T15:14:48.630Z,62.60
2022-10-18T15:19:22.356Z,62.10
2022-10-18T15:23:31.399Z,65.40
2022-10-18T15:27:37.936Z,64.40
2022-10-18T15:31:43.073Z,63.90
2022-10-18T15:35:44.954Z,66.90
2022-10-18T15:39:46.868Z,70.00
2022-10-18T15:43:48.771Z,70.90
2022-10-18T15:48:19.480Z,73.60
2022-10-18T15:52:40.802Z,74.60
2022-10-18T15:56:43.741Z,75.60
2022-10-18T16:00:47.347Z,76.00
2022-10-18T16:04:49.226Z,78.00
2022-10-18T16:08:52.974Z,79.50
2022-10-18T16:17:03.987Z,81.00
2022-10-18T16:21:06.824Z,80.90
2022-10-18T16:25:09.164Z,82.50
2022-10-18T16:29:16.435Z,83.90
2022-10-18T16:33:21.422Z,85.10
2022-10-18T16:37:23.634Z,85.90
2022-10-18T16:41:25.652Z,86.60
2022-10-18T16:45:27.484Z,87.90
2022-10-18T16:49:29.401Z,86.00
2022-10-18T16:53:31.991Z,86.50
2022-10-18T16:57:33.839Z,87.00
2022-10-18T17:01:35.762Z,87.30
2022-10-18T17:05:37.667Z,88.60
2022-10-18T17:09:39.512Z,89.90
2022-10-18T17:13:41.599Z,90.00
2022-10-18T17:17:43.575Z,90.40
2022-10-18T17:21:45.379Z,90.90
2022-10-18T17:25:59.104Z,90.90
2022-10-18T17:30:10.074Z,90.80
2022-10-18T17:34:11.990Z,90.60
2022-10-18T17:38:13.943Z,90.70
2022-10-18T17:42:15.808Z,91.20
2022-10-18T17:46:19.505Z,91.30
2022-10-18T17:50:22.400Z,91.60
2022-10-18T17:54:24.235Z,92.20
2022-10-18T17:58:26.210Z,92.20
2022-10-18T18:02:28.030Z,92.00
2022-10-18T18:06:35.143Z,91.90
2022-10-18T18:10:37.020Z,91.00
2022-10-18T18:14:38.911Z,90.90
2022-10-18T18:18:41.170Z,91.20
2022-10-18T18:22:43.305Z,91.70
2022-10-18T18:26:45.241Z,91.70
2022-10-18T18:30:47.080Z,92.40
2022-10-18T18:34:48.894Z,92.40
2022-10-18T18:38:56.813Z,92.50
2022-10-18T18:43:12.095Z,93.00
2022-10-18T18:47:23.489Z,92.50
2022-10-18T18:51:26.286Z,92.60
2022-10-18T18:55:28.132Z,92.40
2022-10-18T18:59:29.955Z,92.80
2022-10-18T19:03:31.865Z,93.50
2022-10-18T19:07:35.596Z,94.00
2022-10-18T19:11:39.376Z,94.20
2022-10-18T19:15:41.175Z,94.40
2022-10-18T19:19:43.589Z,95.00
2022-10-18T19:23:45.670Z,94.70
2022-10-18T19:27:48.017Z,95.80
2022-10-18T19:31:54.413Z,95.00
2022-10-18T19:35:56.444Z,95.20
2022-10-18T19:39:59.508Z,95.70
2022-10-18T19:44:01.459Z,96.00
2022-10-18T19:48:03.353Z,93.80
2022-10-18T19:52:05.417Z,94.30
2022-10-18T19:56:08.601Z,93.80
2022-10-18T20:00:11.834Z,93.90
2022-10-18T20:04:15.425Z,94.40
2022-10-18T20:08:17.269Z,95.10
2022-10-18T20:12:19.113Z,96.20
2022-10-18T20:16:27.933Z,96.50
2022-10-18T20:20:30.374Z,96.60
2022-10-18T20:24:32.322Z,97.20
2022-10-18T20:28:35.357Z,97.30
2022-10-18T20:32:37.283Z,97.60
2022-10-18T20:36:40.508Z,97.10
2022-10-18T20:40:42.338Z,96.90
2022-10-18T20:44:44.375Z,96.90
2022-10-18T20:48:46.291Z,97.50
2022-10-18T20:52:51.281Z,97.60
2022-10-18T20:56:53.199Z,98.30
2022-10-18T21:00:55.296Z,98.40
2022-10-18T21:04:57.233Z,97.80
2022-10-18T21:09:07.776Z,96.90
2022-10-18T21:13:09.609Z,95.80
2022-10-18T21:17:11.451Z,95.70
2022-10-18T21:21:23.036Z,95.80
2022-10-18T21:25:24.941Z,96.20
2022-10-18T21:29:27.078Z,97.00
2022-10-18T21:33:28.909Z,97.30
2022-10-18T21:37:30.804Z,97.70
2022-10-18T21:41:33.200Z,98.90
2022-10-18T21:45:35.334Z,99.90
2022-10-18T21:49:37.307Z,99.90
2022-10-18T21:53:39.184Z,99.90
2022-10-18T21:57:41.029Z,99.90
2022-10-18T22:01:44.658Z,99.90
2022-10-18T22:05:46.461Z,99.90
2022-10-18T22:09:48.963Z,99.90
2022-10-18T22:13:51.917Z,99.90
2022-10-18T22:17:53.777Z,99.90
2022-10-18T22:21:55.630Z,99.90
2022-10-18T22:26:02.526Z,99.90
2022-10-18T22:30:04.795Z,99.90
2022-10-18T22:34:10.419Z,99.90
2022-10-18T22:38:12.264Z,99.90
2022-10-18T22:42:14.107Z,99.90
2022-10-18T22:46:16.220Z,99.90
2022-10-18T22:50:18.139Z,99.90
2022-10-18T22:54:20.249Z,99.90
2022-10-18T22:58:22.485Z,99.90
2022-10-18T23:02:24.302Z,99.90
2022-10-18T23:06:27.720Z,99.90
2022-10-18T23:10:29.534Z,99.90
2022-10-18T23:14:31.381Z,99.90
2022-10-18T23:18:34.058Z,99.90
2022-10-18T23:22:36.215Z,99.90
2022-10-18T23:26:38.235Z,99.90
2022-10-18T23:30:40.068Z,99.90
2022-10-18T23:34:41.915Z,99.90
2022-10-18T23:38:44.368Z,99.90
2022-10-18T23:42:46.251Z,99.90
2022-10-18T23:46:48.083Z,99.90
2022-10-18T23:50:50.022Z,99.90
2022-10-18T23:54:51.875Z,99.90
2022-10-18T23:58:53.797Z,99.90
